Delcambre, Louisiana
Current Conditions -  °F | °C
As of 5:55 PM on Sunday 23 Nov 2014 (Local Time) from KIYA Reporting Station
Broken Clouds Broken Clouds  
Wind Chill: 68°   Ceiling: 1200
Heat Index: 68°   Visibility: 10mi
Dew Point: 66°   Wind: 12mph
Humidity: 92%   Direction: 200°SSW
Pressure: 29.63"   Gusts: 20mph
Location:  29.95°N, 91.99°W
Report Text: KIYA 232355Z AUTO 20010G17KT 10SM BKN012 20/19 A2963 RMK AO2 T02020188 10226 20202
Loading
Personal Weather Stations






























Interactive Weather Map New forecast layout! Learn more

10-Day Weather Forecast

Advertisements
Track Severe Weather on mobile